sensor_id;sensor_type;location;lat;lon;timestamp;pressure;altitude;pressure_sealevel;temperature;humidity
61384;BME280;63511;49.346;8.798;2023-10-08T00:01:34;100948.25;;;19.82;63.40
61384;BME280;63511;49.346;8.798;2023-10-08T00:04:08;100947.72;;;19.69;63.40
61384;BME280;63511;49.346;8.798;2023-10-08T00:06:35;100953.44;;;19.84;62.89
61384;BME280;63511;49.346;8.798;2023-10-08T00:09:03;100956.84;;;19.84;62.44
61384;BME280;63511;49.346;8.798;2023-10-08T00:11:33;100964.84;;;19.92;62.98
61384;BME280;63511;49.346;8.798;2023-10-08T00:14:01;100958.75;;;19.88;63.15
61384;BME280;63511;49.346;8.798;2023-10-08T00:16:30;100948.13;;;19.59;63.39
61384;BME280;63511;49.346;8.798;2023-10-08T00:18:58;100974.13;;;19.88;62.58
61384;BME280;63511;49.346;8.798;2023-10-08T00:21:34;100958.31;;;19.78;63.93
61384;BME280;63511;49.346;8.798;2023-10-08T00:24:03;100964.53;;;19.84;62.70
61384;BME280;63511;49.346;8.798;2023-10-08T00:26:31;100954.19;;;19.61;62.67
61384;BME280;63511;49.346;8.798;2023-10-08T00:29:00;100972.44;;;19.89;62.81
61384;BME280;63511;49.346;8.798;2023-10-08T00:31:31;100947.19;;;19.57;64.37
61384;BME280;63511;49.346;8.798;2023-10-08T00:34:03;100952.84;;;19.48;63.57
61384;BME280;63511;49.346;8.798;2023-10-08T00:36:30;100964.25;;;19.77;62.80
61384;BME280;63511;49.346;8.798;2023-10-08T00:38:58;100963.19;;;19.72;62.68
61384;BME280;63511;49.346;8.798;2023-10-08T00:41:25;100964.06;;;19.72;63.22
61384;BME280;63511;49.346;8.798;2023-10-08T00:43:53;100960.75;;;19.75;63.57
61384;BME280;63511;49.346;8.798;2023-10-08T00:46:24;100931.97;;;19.40;63.87
61384;BME280;63511;49.346;8.798;2023-10-08T00:48:56;100969.91;;;19.68;63.38
61384;BME280;63511;49.346;8.798;2023-10-08T00:51:23;100957.31;;;19.53;63.72
61384;BME280;63511;49.346;8.798;2023-10-08T00:54:07;100953.06;;;19.54;64.04
61384;BME280;63511;49.346;8.798;2023-10-08T00:56:36;100937.19;;;19.23;65.15
61384;BME280;63511;49.346;8.798;2023-10-08T00:59:18;100952.41;;;19.39;64.30
61384;BME280;63511;49.346;8.798;2023-10-08T01:01:46;100933.25;;;19.10;64.78
61384;BME280;63511;49.346;8.798;2023-10-08T01:04:16;100929.81;;;19.09;63.84
61384;BME280;63511;49.346;8.798;2023-10-08T01:06:44;100940.13;;;19.11;65.03
61384;BME280;63511;49.346;8.798;2023-10-08T01:09:13;100953.16;;;19.36;64.05
61384;BME280;63511;49.346;8.798;2023-10-08T01:11:44;100964.13;;;19.34;65.17
61384;BME280;63511;49.346;8.798;2023-10-08T01:14:14;100941.63;;;19.06;65.19
61384;BME280;63511;49.346;8.798;2023-10-08T01:16:41;100936.25;;;19.00;64.53
61384;BME280;63511;49.346;8.798;2023-10-08T01:19:12;100949.72;;;18.96;64.90
61384;BME280;63511;49.346;8.798;2023-10-08T01:21:44;100966.56;;;19.10;64.69
61384;BME280;63511;49.346;8.798;2023-10-08T01:24:12;100962.44;;;18.94;64.54
61384;BME280;63511;49.346;8.798;2023-10-08T01:26:42;100959.97;;;18.96;64.63
61384;BME280;63511;49.346;8.798;2023-10-08T01:29:10;100954.56;;;18.90;65.42
61384;BME280;63511;49.346;8.798;2023-10-08T01:31:44;100962.38;;;18.93;66.15
61384;BME280;63511;49.346;8.798;2023-10-08T01:34:10;100966.63;;;18.92;66.33
61384;BME280;63511;49.346;8.798;2023-10-08T01:39:27;100948.78;;;18.75;67.59
61384;BME280;63511;49.346;8.798;2023-10-08T01:41:57;100937.09;;;18.43;68.78
61384;BME280;63511;49.346;8.798;2023-10-08T01:44:23;100964.06;;;18.73;66.97
61384;BME280;63511;49.346;8.798;2023-10-08T01:46:50;100969.66;;;18.84;65.96
61384;BME280;63511;49.346;8.798;2023-10-08T01:49:17;100972.34;;;18.87;65.58
61384;BME280;63511;49.346;8.798;2023-10-08T01:51:47;100962.44;;;18.56;68.19
61384;BME280;63511;49.346;8.798;2023-10-08T01:54:14;100970.97;;;18.56;68.13
61384;BME280;63511;49.346;8.798;2023-10-08T01:56:44;100949.00;;;18.24;69.70
61384;BME280;63511;49.346;8.798;2023-10-08T01:59:10;100966.03;;;18.42;69.43
61384;BME280;63511;49.346;8.798;2023-10-08T02:01:39;100972.97;;;18.44;69.07
61384;BME280;63511;49.346;8.798;2023-10-08T02:04:06;100969.59;;;18.45;68.48
61384;BME280;63511;49.346;8.798;2023-10-08T02:06:34;100982.31;;;18.44;68.28
61384;BME280;63511;49.346;8.798;2023-10-08T02:09:00;100955.81;;;18.24;68.31
61384;BME280;63511;49.346;8.798;2023-10-08T02:11:40;100979.78;;;18.26;68.09
61384;BME280;63511;49.346;8.798;2023-10-08T02:14:10;100950.34;;;17.99;69.69
61384;BME280;63511;49.346;8.798;2023-10-08T02:16:36;100960.88;;;18.05;69.62
61384;BME280;63511;49.346;8.798;2023-10-08T02:19:03;100956.28;;;18.15;67.85
61384;BME280;63511;49.346;8.798;2023-10-08T02:21:31;100963.81;;;18.12;68.57
61384;BME280;63511;49.346;8.798;2023-10-08T02:23:58;100962.94;;;18.12;68.28
61384;BME280;63511;49.346;8.798;2023-10-08T02:26:24;100953.81;;;17.81;69.70
61384;BME280;63511;49.346;8.798;2023-10-08T02:28:51;100948.84;;;17.84;69.54
61384;BME280;63511;49.346;8.798;2023-10-08T02:31:20;100937.09;;;17.70;69.71
61384;BME280;63511;49.346;8.798;2023-10-08T02:33:48;100940.00;;;17.60;70.50
61384;BME280;63511;49.346;8.798;2023-10-08T02:36:14;100962.28;;;17.80;68.91
61384;BME280;63511;49.346;8.798;2023-10-08T02:38:40;100970.25;;;17.87;68.75
61384;BME280;63511;49.346;8.798;2023-10-08T02:41:07;100962.38;;;17.82;69.39
61384;BME280;63511;49.346;8.798;2023-10-08T02:43:33;100980.91;;;17.96;68.47
61384;BME280;63511;49.346;8.798;2023-10-08T02:46:01;100956.06;;;17.75;69.64
61384;BME280;63511;49.346;8.798;2023-10-08T02:48:33;100958.56;;;17.58;71.00
61384;BME280;63511;49.346;8.798;2023-10-08T02:51:00;100955.16;;;17.41;72.02
61384;BME280;63511;49.346;8.798;2023-10-08T02:53:36;100945.06;;;17.09;73.16
61384;BME280;63511;49.346;8.798;2023-10-08T02:56:06;100990.34;;;17.47;72.12
61384;BME280;63511;49.346;8.798;2023-10-08T02:58:37;100965.50;;;17.26;72.25
61384;BME280;63511;49.346;8.798;2023-10-08T03:01:04;100967.91;;;17.23;73.31
61384;BME280;63511;49.346;8.798;2023-10-08T03:03:31;100947.38;;;17.04;73.08
61384;BME280;63511;49.346;8.798;2023-10-08T03:05:58;100987.34;;;17.37;72.63
61384;BME280;63511;49.346;8.798;2023-10-08T03:08:28;100980.22;;;17.48;70.67
61384;BME280;63511;49.346;8.798;2023-10-08T03:10:56;100957.63;;;17.22;71.61
61384;BME280;63511;49.346;8.798;2023-10-08T03:13:27;100985.41;;;17.50;69.27
61384;BME280;63511;49.346;8.798;2023-10-08T03:15:54;100984.63;;;17.51;68.78
61384;BME280;63511;49.346;8.798;2023-10-08T03:18:34;100985.78;;;17.57;68.15
61384;BME280;63511;49.346;8.798;2023-10-08T03:21:03;100972.88;;;17.54;68.02
61384;BME280;63511;49.346;8.798;2023-10-08T03:23:38;100967.84;;;17.56;69.59
61384;BME280;63511;49.346;8.798;2023-10-08T03:26:11;100986.56;;;17.72;68.33
61384;BME280;63511;49.346;8.798;2023-10-08T03:28:42;100963.16;;;17.47;68.89
61384;BME280;63511;49.346;8.798;2023-10-08T03:31:09;100950.50;;;17.32;71.08
61384;BME280;63511;49.346;8.798;2023-10-08T03:33:42;100949.31;;;17.26;71.68
61384;BME280;63511;49.346;8.798;2023-10-08T03:36:15;100956.63;;;17.36;71.36
61384;BME280;63511;49.346;8.798;2023-10-08T03:38:47;100956.63;;;17.36;71.96
61384;BME280;63511;49.346;8.798;2023-10-08T03:41:17;100942.63;;;17.28;72.84
61384;BME280;63511;49.346;8.798;2023-10-08T03:43:45;100943.03;;;17.19;71.33
61384;BME280;63511;49.346;8.798;2023-10-08T03:46:18;100954.03;;;17.18;72.14
61384;BME280;63511;49.346;8.798;2023-10-08T03:48:46;100952.19;;;17.16;71.69
61384;BME280;63511;49.346;8.798;2023-10-08T03:51:12;100974.50;;;17.36;70.89
61384;BME280;63511;49.346;8.798;2023-10-08T03:53:41;100949.66;;;17.16;72.73
61384;BME280;63511;49.346;8.798;2023-10-08T03:56:23;100953.72;;;17.12;72.58
61384;BME280;63511;49.346;8.798;2023-10-08T03:58:50;100960.59;;;17.13;71.73
61384;BME280;63511;49.346;8.798;2023-10-08T04:01:19;100980.19;;;17.30;70.73
61384;BME280;63511;49.346;8.798;2023-10-08T04:03:47;100980.34;;;17.33;70.39
61384;BME280;63511;49.346;8.798;2023-10-08T04:06:24;100976.59;;;17.27;70.92
61384;BME280;63511;49.346;8.798;2023-10-08T04:08:57;100968.06;;;17.10;71.84
61384;BME280;63511;49.346;8.798;2023-10-08T04:11:37;100952.53;;;16.89;72.93
61384;BME280;63511;49.346;8.798;2023-10-08T04:14:16;100965.31;;;16.89;72.74
61384;BME280;63511;49.346;8.798;2023-10-08T04:16:43;100949.16;;;16.73;73.28
61384;BME280;63511;49.346;8.798;2023-10-08T04:19:09;100934.75;;;16.42;75.06
61384;BME280;63511;49.346;8.798;2023-10-08T04:21:36;100951.13;;;16.31;76.04
61384;BME280;63511;49.346;8.798;2023-10-08T04:24:04;100935.22;;;16.04;77.46
61384;BME280;63511;49.346;8.798;2023-10-08T04:26:33;100966.72;;;16.21;77.27
61384;BME280;63511;49.346;8.798;2023-10-08T04:29:00;100980.41;;;16.23;76.97
61384;BME280;63511;49.346;8.798;2023-10-08T04:31:27;100961.63;;;15.76;80.42
61384;BME280;63511;49.346;8.798;2023-10-08T04:34:01;100951.16;;;15.42;81.18
61384;BME280;63511;49.346;8.798;2023-10-08T04:36:33;100998.69;;;15.70;80.15
61384;BME280;63511;49.346;8.798;2023-10-08T04:39:04;100994.31;;;15.68;80.82
61384;BME280;63511;49.346;8.798;2023-10-08T04:41:38;100982.88;;;15.61;81.32
61384;BME280;63511;49.346;8.798;2023-10-08T04:44:07;100997.13;;;15.58;82.68
61384;BME280;63511;49.346;8.798;2023-10-08T04:46:39;100983.72;;;15.47;82.37
61384;BME280;63511;49.346;8.798;2023-10-08T04:49:17;101009.22;;;15.77;79.96
61384;BME280;63511;49.346;8.798;2023-10-08T04:51:51;100981.84;;;15.58;81.05
61384;BME280;63511;49.346;8.798;2023-10-08T04:54:23;100975.06;;;15.44;81.37
61384;BME280;63511;49.346;8.798;2023-10-08T04:56:49;100975.38;;;15.35;82.62
61384;BME280;63511;49.346;8.798;2023-10-08T04:59:18;100977.75;;;15.32;81.71
61384;BME280;63511;49.346;8.798;2023-10-08T05:01:47;100952.09;;;15.14;82.00
61384;BME280;63511;49.346;8.798;2023-10-08T05:04:14;100959.28;;;14.92;85.31
61384;BME280;63511;49.346;8.798;2023-10-08T05:06:51;100983.50;;;15.15;83.48
61384;BME280;63511;49.346;8.798;2023-10-08T05:09:43;101009.44;;;15.37;81.58
61384;BME280;63511;49.346;8.798;2023-10-08T05:12:17;100958.06;;;14.72;85.90
61384;BME280;63511;49.346;8.798;2023-10-08T05:14:59;100972.03;;;14.79;85.54
61384;BME280;63511;49.346;8.798;2023-10-08T05:17:40;100964.41;;;14.79;85.40
61384;BME280;63511;49.346;8.798;2023-10-08T05:20:22;100986.44;;;14.93;84.13
61384;BME280;63511;49.346;8.798;2023-10-08T05:23:05;100955.84;;;14.64;85.29
61384;BME280;63511;49.346;8.798;2023-10-08T05:25:47;100973.34;;;14.87;83.33
61384;BME280;63511;49.346;8.798;2023-10-08T05:28:23;100968.69;;;14.80;83.86
61384;BME280;63511;49.346;8.798;2023-10-08T05:30:50;100980.31;;;14.89;83.54
61384;BME280;63511;49.346;8.798;2023-10-08T05:33:20;100968.72;;;14.95;82.74
61384;BME280;63511;49.346;8.798;2023-10-08T05:36:09;100957.53;;;14.78;84.91
61384;BME280;63511;49.346;8.798;2023-10-08T05:38:35;100968.81;;;14.81;85.75
61384;BME280;63511;49.346;8.798;2023-10-08T05:41:15;100983.91;;;14.93;84.23
61384;BME280;63511;49.346;8.798;2023-10-08T05:43:53;100974.63;;;14.66;86.25
61384;BME280;63511;49.346;8.798;2023-10-08T05:46:36;100986.41;;;14.78;85.38
61384;BME280;63511;49.346;8.798;2023-10-08T05:49:32;101019.59;;;14.95;84.96
61384;BME280;63511;49.346;8.798;2023-10-08T05:52:07;101009.84;;;14.87;85.65
61384;BME280;63511;49.346;8.798;2023-10-08T05:55:06;100997.03;;;14.86;85.49
61384;BME280;63511;49.346;8.798;2023-10-08T05:57:48;100985.75;;;14.68;88.28
61384;BME280;63511;49.346;8.798;2023-10-08T06:00:28;101010.34;;;14.82;86.93
61384;BME280;63511;49.346;8.798;2023-10-08T06:03:26;101016.81;;;15.05;84.03
61384;BME280;63511;49.346;8.798;2023-10-08T06:06:02;101028.81;;;15.20;83.01
61384;BME280;63511;49.346;8.798;2023-10-08T06:08:42;100988.16;;;14.79;86.25
61384;BME280;63511;49.346;8.798;2023-10-08T06:11:17;101009.44;;;14.95;84.89
61384;BME280;63511;49.346;8.798;2023-10-08T06:13:57;101030.66;;;15.23;83.19
61384;BME280;63511;49.346;8.798;2023-10-08T06:16:25;101013.78;;;15.10;84.30
61384;BME280;63511;49.346;8.798;2023-10-08T06:18:56;101021.41;;;15.10;85.32
61384;BME280;63511;49.346;8.798;2023-10-08T06:21:22;101031.59;;;15.10;85.95
61384;BME280;63511;49.346;8.798;2023-10-08T06:23:51;101046.78;;;15.23;85.02
61384;BME280;63511;49.346;8.798;2023-10-08T06:26:21;101038.56;;;15.27;85.19
61384;BME280;63511;49.346;8.798;2023-10-08T06:28:50;101028.88;;;15.07;87.51
61384;BME280;63511;49.346;8.798;2023-10-08T06:31:23;101046.13;;;15.41;85.96
61384;BME280;63511;49.346;8.798;2023-10-08T06:33:51;101058.03;;;15.55;85.50
61384;BME280;63511;49.346;8.798;2023-10-08T06:36:18;101039.38;;;15.41;86.02
61384;BME280;63511;49.346;8.798;2023-10-08T06:38:49;101048.94;;;15.45;88.42
61384;BME280;63511;49.346;8.798;2023-10-08T06:41:16;101054.69;;;15.70;86.69
61384;BME280;63511;49.346;8.798;2023-10-08T06:43:44;101060.50;;;15.97;84.06
61384;BME280;63511;49.346;8.798;2023-10-08T06:46:13;101056.00;;;16.23;82.01
61384;BME280;63511;49.346;8.798;2023-10-08T06:48:41;101074.19;;;16.29;83.10
61384;BME280;63511;49.346;8.798;2023-10-08T06:51:08;101064.53;;;16.23;84.37
61384;BME280;63511;49.346;8.798;2023-10-08T06:53:38;101047.84;;;16.13;87.04
61384;BME280;63511;49.346;8.798;2023-10-08T06:56:04;101067.88;;;16.37;84.78
61384;BME280;63511;49.346;8.798;2023-10-08T06:58:31;101069.41;;;16.49;83.84
61384;BME280;63511;49.346;8.798;2023-10-08T07:00:58;101069.81;;;16.72;83.49
61384;BME280;63511;49.346;8.798;2023-10-08T07:03:29;101058.97;;;16.76;83.53
61384;BME280;63511;49.346;8.798;2023-10-08T07:05:58;101062.09;;;16.86;82.13
61384;BME280;63511;49.346;8.798;2023-10-08T07:08:25;101069.94;;;17.06;82.90
61384;BME280;63511;49.346;8.798;2023-10-08T07:10:52;101056.59;;;16.95;84.75
61384;BME280;63511;49.346;8.798;2023-10-08T07:13:19;101067.38;;;17.06;84.93
61384;BME280;63511;49.346;8.798;2023-10-08T07:15:47;101071.53;;;17.04;83.56
61384;BME280;63511;49.346;8.798;2023-10-08T07:18:14;101091.34;;;17.24;80.49
61384;BME280;63511;49.346;8.798;2023-10-08T07:20:47;101093.47;;;17.49;80.65
61384;BME280;63511;49.346;8.798;2023-10-08T07:23:20;101079.19;;;17.36;79.44
61384;BME280;63511;49.346;8.798;2023-10-08T07:25:52;101113.38;;;17.70;77.83
61384;BME280;63511;49.346;8.798;2023-10-08T07:28:22;101114.47;;;17.92;77.53
61384;BME280;63511;49.346;8.798;2023-10-08T07:30:50;101074.50;;;17.60;82.45
61384;BME280;63511;49.346;8.798;2023-10-08T07:33:17;101121.34;;;17.93;78.03
61384;BME280;63511;49.346;8.798;2023-10-08T07:35:44;101122.56;;;18.01;73.75
61384;BME280;63511;49.346;8.798;2023-10-08T07:38:17;101128.88;;;18.25;74.86
61384;BME280;63511;49.346;8.798;2023-10-08T07:40:45;101142.63;;;18.45;74.67
61384;BME280;63511;49.346;8.798;2023-10-08T07:43:11;101142.78;;;18.30;72.65
61384;BME280;63511;49.346;8.798;2023-10-08T07:45:38;101146.06;;;18.45;73.89
61384;BME280;63511;49.346;8.798;2023-10-08T07:48:05;101110.56;;;18.16;77.64
61384;BME280;63511;49.346;8.798;2023-10-08T07:50:35;101146.06;;;18.61;76.44
61384;BME280;63511;49.346;8.798;2023-10-08T07:53:03;101116.81;;;18.74;72.74
61384;BME280;63511;49.346;8.798;2023-10-08T07:55:29;101108.75;;;18.66;72.67
61384;BME280;63511;49.346;8.798;2023-10-08T07:57:59;101137.44;;;18.96;71.53
61384;BME280;63511;49.346;8.798;2023-10-08T08:00:29;101132.22;;;19.13;72.97
61384;BME280;63511;49.346;8.798;2023-10-08T08:03:03;101114.59;;;19.19;72.36
61384;BME280;63511;49.346;8.798;2023-10-08T08:05:31;101106.72;;;18.96;73.23
61384;BME280;63511;49.346;8.798;2023-10-08T08:08:00;101135.75;;;19.34;73.06
61384;BME280;63511;49.346;8.798;2023-10-08T08:10:30;101113.59;;;19.15;73.09
61384;BME280;63511;49.346;8.798;2023-10-08T08:13:03;101127.41;;;19.19;73.58
61384;BME280;63511;49.346;8.798;2023-10-08T08:15:31;101126.06;;;19.27;71.74
61384;BME280;63511;49.346;8.798;2023-10-08T08:17:58;101124.13;;;19.60;68.10
61384;BME280;63511;49.346;8.798;2023-10-08T08:20:25;101118.41;;;19.46;70.14
61384;BME280;63511;49.346;8.798;2023-10-08T08:22:59;101122.78;;;19.48;70.36
61384;BME280;63511;49.346;8.798;2023-10-08T08:25:34;101137.38;;;19.69;72.67
61384;BME280;63511;49.346;8.798;2023-10-08T08:28:11;101124.09;;;19.58;70.34
61384;BME280;63511;49.346;8.798;2023-10-08T08:30:42;101130.00;;;19.76;69.64
61384;BME280;63511;49.346;8.798;2023-10-08T08:33:11;101131.47;;;19.71;67.84
61384;BME280;63511;49.346;8.798;2023-10-08T08:35:38;101134.13;;;19.73;69.85
61384;BME280;63511;49.346;8.798;2023-10-08T08:38:04;101121.72;;;19.63;68.67
61384;BME280;63511;49.346;8.798;2023-10-08T08:40:33;101162.75;;;20.03;67.96
61384;BME280;63511;49.346;8.798;2023-10-08T08:43:00;101148.03;;;19.99;70.30
61384;BME280;63511;49.346;8.798;2023-10-08T08:45:31;101140.34;;;19.99;69.09
61384;BME280;63511;49.346;8.798;2023-10-08T08:47:58;101145.78;;;20.06;69.81
61384;BME280;63511;49.346;8.798;2023-10-08T08:50:25;101125.78;;;19.98;70.58
61384;BME280;63511;49.346;8.798;2023-10-08T08:52:52;101146.56;;;20.24;69.88
61384;BME280;63511;49.346;8.798;2023-10-08T08:55:18;101110.69;;;20.05;71.55
61384;BME280;63511;49.346;8.798;2023-10-08T08:57:46;101127.91;;;20.28;70.05
61384;BME280;63511;49.346;8.798;2023-10-08T09:00:13;101121.19;;;20.11;70.27
61384;BME280;63511;49.346;8.798;2023-10-08T09:02:43;101111.78;;;20.10;70.22
61384;BME280;63511;49.346;8.798;2023-10-08T09:05:11;101119.03;;;20.20;69.75
61384;BME280;63511;49.346;8.798;2023-10-08T09:07:55;101117.53;;;20.05;70.49
61384;BME280;63511;49.346;8.798;2023-10-08T09:10:23;101115.81;;;20.05;69.58
61384;BME280;63511;49.346;8.798;2023-10-08T09:12:52;101130.91;;;20.18;69.29
61384;BME280;63511;49.346;8.798;2023-10-08T09:15:19;101131.78;;;20.19;70.47
61384;BME280;63511;49.346;8.798;2023-10-08T09:17:49;101142.78;;;20.16;69.64
61384;BME280;63511;49.346;8.798;2023-10-08T09:20:16;101140.72;;;20.28;69.50
61384;BME280;63511;49.346;8.798;2023-10-08T09:22:45;101135.97;;;20.36;70.97
61384;BME280;63511;49.346;8.798;2023-10-08T09:25:12;101142.78;;;20.35;71.38
61384;BME280;63511;49.346;8.798;2023-10-08T09:27:43;101150.69;;;20.42;68.89
61384;BME280;63511;49.346;8.798;2023-10-08T09:30:12;101146.41;;;20.41;67.79
61384;BME280;63511;49.346;8.798;2023-10-08T09:32:43;101118.16;;;20.20;70.92
61384;BME280;63511;49.346;8.798;2023-10-08T09:35:11;101130.53;;;20.30;69.10
61384;BME280;63511;49.346;8.798;2023-10-08T09:37:38;101122.66;;;20.25;71.20
61384;BME280;63511;49.346;8.798;2023-10-08T09:40:06;101099.88;;;20.12;71.64
61384;BME280;63511;49.346;8.798;2023-10-08T09:42:35;101118.53;;;20.29;71.41
61384;BME280;63511;49.346;8.798;2023-10-08T09:45:01;101149.69;;;20.59;70.58
61384;BME280;63511;49.346;8.798;2023-10-08T09:47:31;101145.00;;;20.69;67.87
61384;BME280;63511;49.346;8.798;2023-10-08T09:50:02;101129.59;;;20.69;72.22
61384;BME280;63511;49.346;8.798;2023-10-08T09:52:36;101108.28;;;20.50;70.78
61384;BME280;63511;49.346;8.798;2023-10-08T09:55:08;101138.22;;;20.94;69.89
61384;BME280;63511;49.346;8.798;2023-10-08T09:57:35;101112.81;;;20.77;70.57
61384;BME280;63511;49.346;8.798;2023-10-08T10:00:01;101122.69;;;20.68;68.56
61384;BME280;63511;49.346;8.798;2023-10-08T10:02:30;101145.16;;;21.17;67.40
61384;BME280;63511;49.346;8.798;2023-10-08T10:04:58;101149.84;;;21.06;67.20
61384;BME280;63511;49.346;8.798;2023-10-08T10:07:25;101146.41;;;21.06;67.04
61384;BME280;63511;49.346;8.798;2023-10-08T10:09:55;101170.69;;;21.36;67.29
61384;BME280;63511;49.346;8.798;2023-10-08T10:12:24;101161.91;;;21.53;65.91
61384;BME280;63511;49.346;8.798;2023-10-08T10:14:52;101120.59;;;21.25;66.35
61384;BME280;63511;49.346;8.798;2023-10-08T10:17:20;101110.97;;;21.19;68.14
61384;BME280;63511;49.346;8.798;2023-10-08T10:19:49;101142.22;;;21.54;67.87
61384;BME280;63511;49.346;8.798;2023-10-08T10:22:26;101128.66;;;21.58;66.28
61384;BME280;63511;49.346;8.798;2023-10-08T10:24:55;101107.25;;;21.35;65.49
61384;BME280;63511;49.346;8.798;2023-10-08T10:27:22;101143.63;;;21.93;65.90
61384;BME280;63511;49.346;8.798;2023-10-08T10:29:49;101132.81;;;21.78;64.56
61384;BME280;63511;49.346;8.798;2023-10-08T10:32:17;101153.53;;;22.07;63.77
61384;BME280;63511;49.346;8.798;2023-10-08T10:34:44;101152.44;;;22.25;64.26
61384;BME280;63511;49.346;8.798;2023-10-08T10:37:12;101132.97;;;22.07;64.79
61384;BME280;63511;49.346;8.798;2023-10-08T10:39:53;101153.69;;;22.36;65.09
61384;BME280;63511;49.346;8.798;2023-10-08T10:42:27;101127.78;;;22.32;63.37
61384;BME280;63511;49.346;8.798;2023-10-08T10:44:53;101105.31;;;21.76;65.80
61384;BME280;63511;49.346;8.798;2023-10-08T10:47:21;101114.81;;;21.78;63.74
61384;BME280;63511;49.346;8.798;2023-10-08T10:49:53;101130.34;;;22.05;63.66
61384;BME280;63511;49.346;8.798;2023-10-08T10:52:21;101106.22;;;21.78;63.84
61384;BME280;63511;49.346;8.798;2023-10-08T10:54:57;101134.50;;;22.27;64.83
61384;BME280;63511;49.346;8.798;2023-10-08T10:57:27;101100.19;;;22.01;65.55
61384;BME280;63511;49.346;8.798;2023-10-08T11:00:01;101125.91;;;22.26;64.47
61384;BME280;63511;49.346;8.798;2023-10-08T11:02:43;101117.34;;;22.27;63.43
61384;BME280;63511;49.346;8.798;2023-10-08T11:05:13;101120.78;;;22.55;63.98
61384;BME280;63511;49.346;8.798;2023-10-08T11:07:44;101111.38;;;22.55;62.93
61384;BME280;63511;49.346;8.798;2023-10-08T11:10:11;101118.16;;;22.80;64.00
61384;BME280;63511;49.346;8.798;2023-10-08T11:12:42;101084.25;;;22.66;61.49
61384;BME280;63511;49.346;8.798;2023-10-08T11:15:12;101083.47;;;22.69;64.99
61384;BME280;63511;49.346;8.798;2023-10-08T11:17:40;101087.25;;;22.80;61.51
61384;BME280;63511;49.346;8.798;2023-10-08T11:20:22;101066.44;;;22.72;64.42
61384;BME280;63511;49.346;8.798;2023-10-08T11:22:49;101064.19;;;22.56;61.56
61384;BME280;63511;49.346;8.798;2023-10-08T11:25:20;101098.00;;;22.94;64.30
61384;BME280;63511;49.346;8.798;2023-10-08T11:27:49;101059.25;;;22.62;61.28
61384;BME280;63511;49.346;8.798;2023-10-08T11:30:17;101077.69;;;22.76;63.48
61384;BME280;63511;49.346;8.798;2023-10-08T11:32:44;101073.59;;;22.82;63.00
61384;BME280;63511;49.346;8.798;2023-10-08T11:35:14;101082.34;;;22.87;64.49
61384;BME280;63511;49.346;8.798;2023-10-08T11:37:44;101124.88;;;23.33;60.77
61384;BME280;63511;49.346;8.798;2023-10-08T11:40:21;101084.34;;;23.27;60.94
61384;BME280;63511;49.346;8.798;2023-10-08T11:42:54;101101.66;;;23.61;62.89
61384;BME280;63511;49.346;8.798;2023-10-08T11:45:22;101104.94;;;23.89;61.02
61384;BME280;63511;49.346;8.798;2023-10-08T11:47:51;101095.03;;;23.71;62.51
61384;BME280;63511;49.346;8.798;2023-10-08T11:50:24;101110.41;;;24.01;63.16
61384;BME280;63511;49.346;8.798;2023-10-08T11:52:56;101106.19;;;24.04;61.13
61384;BME280;63511;49.346;8.798;2023-10-08T11:55:26;101092.63;;;23.79;59.52
61384;BME280;63511;49.346;8.798;2023-10-08T11:57:54;101119.97;;;24.05;63.32
61384;BME280;63511;49.346;8.798;2023-10-08T12:00:22;101092.06;;;23.90;59.92
61384;BME280;63511;49.346;8.798;2023-10-08T12:02:50;101102.88;;;24.08;60.72
61384;BME280;63511;49.346;8.798;2023-10-08T12:05:19;101106.44;;;24.15;61.15
61384;BME280;63511;49.346;8.798;2023-10-08T12:07:48;101086.81;;;23.86;61.20
61384;BME280;63511;49.346;8.798;2023-10-08T12:10:16;101094.03;;;23.99;63.56
61384;BME280;63511;49.346;8.798;2023-10-08T12:12:47;101077.84;;;23.71;59.08
61384;BME280;63511;49.346;8.798;2023-10-08T12:15:15;101094.38;;;23.80;58.84
61384;BME280;63511;49.346;8.798;2023-10-08T12:17:45;101109.53;;;23.99;61.31
61384;BME280;63511;49.346;8.798;2023-10-08T12:20:21;101107.72;;;24.29;58.15
61384;BME280;63511;49.346;8.798;2023-10-08T12:22:49;101075.25;;;24.06;61.78
61384;BME280;63511;49.346;8.798;2023-10-08T12:25:15;101074.22;;;23.98;58.77
61384;BME280;63511;49.346;8.798;2023-10-08T12:27:42;101061.88;;;23.86;57.28
61384;BME280;63511;49.346;8.798;2023-10-08T12:30:08;101096.09;;;24.48;58.87
61384;BME280;63511;49.346;8.798;2023-10-08T12:32:37;101083.97;;;24.44;60.80
61384;BME280;63511;49.346;8.798;2023-10-08T12:35:07;101072.25;;;24.22;61.19
61384;BME280;63511;49.346;8.798;2023-10-08T12:37:38;101073.59;;;24.08;57.01
61384;BME280;63511;49.346;8.798;2023-10-08T12:40:05;101093.72;;;24.57;59.30
61384;BME280;63511;49.346;8.798;2023-10-08T12:42:37;101062.53;;;24.48;56.22
61384;BME280;63511;49.346;8.798;2023-10-08T12:45:04;101060.03;;;24.52;55.90
61384;BME280;63511;49.346;8.798;2023-10-08T12:47:38;101055.78;;;24.54;56.54
61384;BME280;63511;49.346;8.798;2023-10-08T12:50:05;101054.63;;;24.42;56.18
61384;BME280;63511;49.346;8.798;2023-10-08T12:52:32;101043.13;;;24.28;55.44
61384;BME280;63511;49.346;8.798;2023-10-08T12:55:00;101041.56;;;24.36;55.52
61384;BME280;63511;49.346;8.798;2023-10-08T12:57:28;101062.72;;;24.55;58.44
61384;BME280;63511;49.346;8.798;2023-10-08T12:59:58;101026.84;;;24.32;55.47
61384;BME280;63511;49.346;8.798;2023-10-08T13:02:24;101036.94;;;24.59;57.14
61384;BME280;63511;49.346;8.798;2023-10-08T13:04:54;101046.34;;;24.55;57.73
61384;BME280;63511;49.346;8.798;2023-10-08T13:07:22;101045.69;;;24.67;57.04
61384;BME280;63511;49.346;8.798;2023-10-08T13:09:51;101057.97;;;24.77;56.16